Time;durP1;ratioP1;P1;durP2;ratioP2;P2;SDS_P1;SDS_P2;PMS_P1;PMS_P2;Temp;Humidity;BMP_temperature;BMP_pressure;BME280_temperature;BME280_humidity;BME280_pressure;Samples;Min_cycle;Max_cycle;Signal;HPM_P1;HPM_P2
2022/08/06 00:05:05;;;;;;;;;;;;;;;17.54;100.00;96042.47;10519257;28;1891;-70
2022/08/06 00:10:09;;;;;;;;;;;;;;;17.47;100.00;96066.56;10512721;28;1903;-70
2022/08/06 00:15:13;;;;;;;;;;;;;;;17.56;100.00;96079.09;10519136;28;1869;-71
2022/08/06 00:20:17;;;;;;;;;;;;;;;17.65;100.00;96073.72;10521444;28;1914;-71
2022/08/06 00:25:33;;;;;;;;;;;;;;;17.60;100.00;96084.69;10527620;28;1872;-70
2022/08/06 00:30:37;;;;;;;;;;;;;;;17.44;100.00;96088.94;10560971;27;1919;-70
2022/08/06 00:35:46;;;;;;;;;;;;;;;17.38;100.00;96082.03;10527431;28;1929;-70
2022/08/06 00:40:49;;;;;;;;;;;;;;;17.44;100.00;96070.72;10524201;28;1958;-71
2022/08/06 00:46:01;;;;;;;;;;;;;;;17.32;100.00;96062.31;10525930;28;1904;-71
2022/08/06 00:51:06;;;;;;;;;;;;;;;17.39;100.00;96062.69;10523979;28;2103;-71
2022/08/06 00:56:20;;;;;;;;;;;;;;;17.40;100.00;96058.03;10561298;27;2062;-72
2022/08/06 01:01:31;;;;;;;;;;;;;;;17.29;100.00;96080.03;10525050;28;1993;-70
2022/08/06 01:06:53;;;;;;;;;;;;;;;17.26;100.00;96080.66;10527746;28;1976;-72
2022/08/06 01:12:01;;;;;;;;;;;;;;;17.12;100.00;96074.47;10527197;28;1949;-71
2022/08/06 01:17:10;;;;;;;;;;;;;;;16.89;100.00;96065.50;10525015;28;2043;-70
2022/08/06 01:22:32;;;;;;;;;;;;;;;16.87;100.00;96065.00;10540270;28;1980;-71
2022/08/06 01:27:56;;;;;;;;;;;;;;;16.82;100.00;96058.88;10525600;28;1929;-68
2022/08/06 01:33:19;;;;;;;;;;;;;;;16.81;100.00;96051.84;10523447;28;2016;-69
2022/08/06 01:38:32;;;;;;;;;;;;;;;16.82;100.00;96050.75;10526446;28;2013;-70
2022/08/06 01:43:38;;;;;;;;;;;;;;;16.82;100.00;96040.69;10526485;28;1922;-70
2022/08/06 01:49:01;;;;;;;;;;;;;;;16.90;100.00;96031.78;10520919;28;1906;-69
2022/08/06 01:54:25;;;;;;;;;;;;;;;16.86;100.00;96047.13;10525939;28;1905;-70
2022/08/06 01:59:32;;;;;;;;;;;;;;;16.85;100.00;96059.06;10524675;28;2059;-69
2022/08/06 02:04:39;;;;;;;;;;;;;;;16.87;100.00;96061.50;10521967;28;1961;-70
2022/08/06 02:09:45;;;;;;;;;;;;;;;16.86;100.00;96057.16;10522458;28;1961;-69
2022/08/06 02:14:52;;;;;;;;;;;;;;;16.93;100.00;96054.84;10524377;28;2060;-69
2022/08/06 02:19:59;;;;;;;;;;;;;;;16.99;100.00;96069.91;10522217;28;2064;-70
2022/08/06 02:25:23;;;;;;;;;;;;;;;17.08;100.00;96068.03;10539214;28;2055;-72
2022/08/06 02:30:33;;;;;;;;;;;;;;;17.13;100.00;96067.94;10524036;28;1939;-70
2022/08/06 02:35:38;;;;;;;;;;;;;;;17.24;100.00;96055.72;10523912;28;2375;-71
2022/08/06 02:40:42;;;;;;;;;;;;;;;17.20;100.00;96060.16;10533862;27;2399;-69
2022/08/06 02:45:45;;;;;;;;;;;;;;;17.17;100.00;96059.94;10521666;28;2141;-69
2022/08/06 02:51:01;;;;;;;;;;;;;;;17.10;100.00;96065.81;10533820;28;1969;-69
2022/08/06 02:56:07;;;;;;;;;;;;;;;17.06;100.00;96069.47;10522019;28;1911;-69
2022/08/06 03:01:12;;;;;;;;;;;;;;;16.95;100.00;96063.47;10522711;28;2013;-70
2022/08/06 03:06:24;;;;;;;;;;;;;;;16.93;100.00;96065.69;10522972;28;2222;-69
2022/08/06 03:11:29;;;;;;;;;;;;;;;16.93;100.00;96066.50;10521140;28;2042;-70
2022/08/06 03:16:34;;;;;;;;;;;;;;;16.94;100.00;96073.53;10524428;28;1981;-70
2022/08/06 03:21:38;;;;;;;;;;;;;;;16.99;100.00;96076.13;10523712;28;1987;-70
2022/08/06 03:26:42;;;;;;;;;;;;;;;17.00;100.00;96074.22;10522676;28;1974;-70
2022/08/06 03:31:46;;;;;;;;;;;;;;;17.08;100.00;96073.47;10523569;28;2048;-71
2022/08/06 03:37:01;;;;;;;;;;;;;;;17.10;100.00;96071.25;10553036;28;1873;-69
2022/08/06 03:42:10;;;;;;;;;;;;;;;17.13;100.00;96086.94;10522162;28;1989;-70
2022/08/06 03:47:15;;;;;;;;;;;;;;;17.16;100.00;96090.94;10522316;28;1996;-70
2022/08/06 03:52:19;;;;;;;;;;;;;;;17.10;100.00;96092.19;10521110;28;2029;-70
2022/08/06 03:57:25;;;;;;;;;;;;;;;17.17;100.00;96096.06;10527699;28;2045;-70
2022/08/06 04:02:31;;;;;;;;;;;;;;;17.20;100.00;96102.81;10527231;28;2018;-70
2022/08/06 04:07:48;;;;;;;;;;;;;;;17.02;100.00;96093.72;10559899;27;2301;-69
2022/08/06 04:12:58;;;;;;;;;;;;;;;16.96;100.00;96103.09;10526787;28;1930;-71
2022/08/06 04:18:22;;;;;;;;;;;;;;;16.96;100.00;96105.81;10562329;27;2297;-69
2022/08/06 04:23:27;;;;;;;;;;;;;;;16.78;100.00;96118.41;10543102;28;2335;-71
2022/08/06 04:28:40;;;;;;;;;;;;;;;16.68;100.00;96129.47;10527540;28;1994;-69
2022/08/06 04:33:47;;;;;;;;;;;;;;;16.53;100.00;96138.72;10526012;28;1966;-70
2022/08/06 04:38:54;;;;;;;;;;;;;;;16.43;100.00;96152.50;10527213;28;1977;-70
2022/08/06 04:44:00;;;;;;;;;;;;;;;16.23;100.00;96155.59;10527600;28;1981;-69
2022/08/06 04:49:04;;;;;;;;;;;;;;;16.01;100.00;96159.78;10528575;28;1898;-70
2022/08/06 04:54:09;;;;;;;;;;;;;;;15.91;100.00;96154.56;10528407;28;1958;-70
2022/08/06 04:59:16;;;;;;;;;;;;;;;15.81;100.00;96181.81;10543868;28;1965;-71
2022/08/06 05:04:19;;;;;;;;;;;;;;;15.66;100.00;96170.13;10525371;28;1949;-71
2022/08/06 05:09:25;;;;;;;;;;;;;;;15.79;100.00;96178.59;10527923;28;1922;-71
2022/08/06 05:14:45;;;;;;;;;;;;;;;15.65;100.00;96184.00;10523447;28;1980;-71
2022/08/06 05:19:49;;;;;;;;;;;;;;;15.66;100.00;96191.81;10526768;28;1960;-71
2022/08/06 05:24:53;;;;;;;;;;;;;;;15.61;100.00;96202.69;10524192;28;1941;-69
2022/08/06 05:30:07;;;;;;;;;;;;;;;15.61;100.00;96210.84;10557373;27;1896;-70
2022/08/06 05:35:11;;;;;;;;;;;;;;;15.40;100.00;96215.75;10525202;28;1978;-72
2022/08/06 05:40:20;;;;;;;;;;;;;;;15.33;100.00;96222.63;10557270;27;1980;-70
2022/08/06 05:45:37;;;;;;;;;;;;;;;14.74;100.00;96229.34;10541877;28;1945;-71
2022/08/06 05:50:42;;;;;;;;;;;;;;;14.53;100.00;96239.59;10523787;28;1928;-70
2022/08/06 05:55:47;;;;;;;;;;;;;;;14.42;100.00;96238.06;10522665;28;2014;-70
2022/08/06 06:00:51;;;;;;;;;;;;;;;14.42;100.00;96238.84;10524598;28;1925;-70
2022/08/06 06:05:58;;;;;;;;;;;;;;;14.42;100.00;96252.38;10522290;28;1950;-71
2022/08/06 06:11:10;;;;;;;;;;;;;;;14.41;100.00;96271.59;10536079;28;1958;-76
2022/08/06 06:16:16;;;;;;;;;;;;;;;14.35;100.00;96270.84;10523799;28;1898;-71
2022/08/06 06:21:28;;;;;;;;;;;;;;;14.30;100.00;96279.00;10541171;28;1946;-72
2022/08/06 06:26:34;;;;;;;;;;;;;;;14.25;100.00;96281.75;10521236;28;1976;-71
2022/08/06 06:31:40;;;;;;;;;;;;;;;14.10;100.00;96290.00;10522129;28;2042;-72
2022/08/06 06:37:05;;;;;;;;;;;;;;;14.27;100.00;96285.81;10522133;28;1938;-72
2022/08/06 06:42:08;;;;;;;;;;;;;;;14.00;100.00;96291.72;10523332;28;2107;-71
2022/08/06 06:47:13;;;;;;;;;;;;;;;13.91;100.00;96303.41;10521983;28;1961;-70
2022/08/06 06:52:18;;;;;;;;;;;;;;;13.67;100.00;96305.97;10523840;28;1942;-69
2022/08/06 06:57:32;;;;;;;;;;;14.70;99.90;;;13.83;100.00;96306.69;10523616;28;2021;-70
2022/08/06 07:02:45;;;;;;;;;;;14.60;99.90;;;13.95;100.00;96309.84;10521655;28;1984;-71
2022/08/06 07:07:48;;;;;;;;;;;14.70;99.90;;;14.06;100.00;96309.50;10523684;28;2456;-71
2022/08/06 07:12:51;;;;;;;;;;;14.80;99.90;;;13.94;100.00;96319.06;10523538;28;2004;-71
2022/08/06 07:17:56;;;;;;;;;;;14.80;99.90;;;13.87;100.00;96313.13;10521691;28;1981;-73
2022/08/06 07:23:04;;;;;;;;;;;14.80;99.90;;;13.95;100.00;96313.38;10520277;28;2014;-71
2022/08/06 07:28:27;;;;;;;;;;;14.70;99.90;;;14.06;100.00;96314.91;10521375;28;2014;-72
2022/08/06 07:33:31;;;;;;;;;;;14.80;99.90;;;14.15;100.00;96325.91;10529995;28;2010;-73
2022/08/06 07:38:54;;;;;;;;;;;14.90;99.90;;;14.10;100.00;96328.66;10531772;28;1906;-70
2022/08/06 07:43:58;;;;;;;;;;;14.90;99.90;;;14.14;100.00;96334.31;10528974;28;1987;-69
2022/08/06 07:49:00;;;;;;;;;;;14.90;99.90;;;14.24;100.00;96334.22;10542153;28;2021;-70
2022/08/06 07:54:05;;;;;;;;;;;14.90;99.90;;;14.34;100.00;96331.44;10529824;28;1983;-71
2022/08/06 07:59:11;;;;;;;;;;;15.10;99.90;;;14.54;100.00;96344.81;10530182;28;1980;-70
2022/08/06 08:09:56;;;;;;;;;;;15.20;99.90;;;14.46;100.00;96348.13;10528855;28;1935;-71
2022/08/06 08:15:05;;;;;;;;;;;15.20;99.90;;;14.78;100.00;96346.75;10528924;28;1980;-71
2022/08/06 08:20:21;;;;;;;;;;;15.40;99.90;;;14.71;100.00;96352.50;10543256;28;2255;-72
2022/08/06 08:25:24;;;;;;;;;;;15.50;99.90;;;14.82;100.00;96350.50;10528586;28;1913;-72
2022/08/06 08:30:44;;;;;;;;;;;15.50;99.90;;;15.39;100.00;96354.19;10528917;28;1902;-71
2022/08/06 08:35:51;;;;;;;;;;;15.90;99.90;;;15.52;100.00;96344.53;10526355;28;1870;-70
2022/08/06 08:41:03;;;;;;;;;;;16.00;99.90;;;15.47;100.00;96356.28;10526949;28;1913;-70
2022/08/06 08:46:06;;;;;;;;;;;16.10;99.90;;;15.29;100.00;96362.44;10527389;28;1969;-70
2022/08/06 08:51:09;;;;;;;;;;;16.20;99.90;;;15.23;100.00;96366.31;10525083;28;1923;-70
2022/08/06 08:56:13;;;;;;;;;;;16.20;99.90;;;15.16;100.00;96360.44;10526566;28;1946;-71
2022/08/06 09:01:37;;;;;;;;;;;16.00;99.90;;;15.21;100.00;96368.50;10525800;28;2005;-71
2022/08/06 09:07:00;;;;;;;;;;;16.00;99.90;;;15.28;100.00;96368.97;10525817;28;1973;-70
2022/08/06 09:12:03;;;;;;;;;;;16.00;99.90;;;15.40;100.00;96377.50;10527337;28;1862;-71
2022/08/06 09:17:27;;;;;;;;;;;16.10;99.90;;;15.25;100.00;96392.00;10528193;28;1974;-72
2022/08/06 09:22:52;;;;;;;;;;;16.10;99.90;;;15.25;100.00;96383.88;10525838;28;1990;-71
2022/08/06 09:27:57;;;;;;;;;;;16.00;99.90;;;15.88;100.00;96389.06;10562120;27;2043;-70
2022/08/06 09:33:01;;;;;;;;;;;16.20;99.90;;;15.57;100.00;96393.25;10527130;28;1950;-70
2022/08/06 09:38:24;;;;;;;;;;;16.30;99.90;;;15.30;100.00;96391.16;10523736;28;2233;-70
2022/08/06 09:43:28;;;;;;;;;;;16.20;99.90;;;16.21;100.00;96392.66;10528301;28;1965;-71
2022/08/06 09:48:51;;;;;;;;;;;16.50;99.90;;;15.71;100.00;96391.47;10523570;28;1964;-71
2022/08/06 09:54:15;;;;;;;;;;;16.70;99.90;;;15.79;100.00;96398.97;10538307;28;2080;-71
2022/08/06 09:59:28;;;;;;;;;;;16.50;99.90;;;15.81;100.00;96395.97;10524824;28;1965;-71
2022/08/06 10:04:36;;;;;;;;;;;16.60;99.90;;;16.00;100.00;96401.41;10526230;28;1839;-70
2022/08/06 10:09:47;;;;;;;;;;;16.60;99.90;;;16.12;100.00;96393.63;10540528;28;2274;-70
2022/08/06 10:14:50;;;;;;;;;;;16.60;99.90;;;16.28;100.00;96386.88;10523707;28;1840;-70
2022/08/06 10:19:54;;;;;;;;;;;16.90;99.90;;;17.04;100.00;96387.53;10526629;28;1910;-73
2022/08/06 10:24:58;;;;;;;;;;;17.40;99.90;;;16.86;100.00;96391.94;10522057;28;1894;-72
2022/08/06 10:30:14;;;;;;;;;;;17.60;99.90;;;17.17;100.00;96389.44;10523975;28;1873;-70
2022/08/06 10:35:17;;;;;;;;;;;17.70;99.90;;;17.10;100.00;96396.38;10555792;27;1806;-70
2022/08/06 10:40:22;;;;;;;;;;;17.80;99.90;;;17.02;100.00;96393.25;10522799;28;1902;-70
2022/08/06 10:45:33;;;;;;;;;;;17.80;99.90;;;16.92;100.00;96403.50;10524903;28;1823;-69
2022/08/06 10:50:51;;;;;;;;;;;17.80;99.90;;;17.38;100.00;96394.53;10521338;28;1779;-71
2022/08/06 10:55:58;;;;;;;;;;;17.80;99.90;;;17.79;100.00;96392.59;10523717;28;1863;-71
2022/08/06 11:01:01;;;;;;;;;;;18.20;99.90;;;17.68;100.00;96391.16;10523742;28;2453;-70
2022/08/06 11:06:05;;;;;;;;;;;18.30;99.90;;;17.83;100.00;96388.16;10536257;28;1846;-71
2022/08/06 11:11:13;;;;;;;;;;;18.40;99.90;;;17.86;100.00;96391.38;10521611;28;1818;-71
2022/08/06 11:16:22;;;;;;;;;;;18.60;99.90;;;17.46;100.00;96377.50;10555399;27;1759;-68
2022/08/06 11:21:30;;;;;;;;;;;18.50;99.90;;;17.99;100.00;96385.09;10522674;28;1918;-69
2022/08/06 11:26:53;;;;;;;;;;;18.40;99.90;;;17.56;100.00;96388.97;10521443;28;2076;-70
2022/08/06 11:32:04;;;;;;;;;;;18.40;99.90;;;17.96;100.00;96375.66;10525550;28;1835;-70
2022/08/06 11:37:22;;;;;;;;;;;18.60;99.90;;;18.24;100.00;96375.56;10522757;28;1882;-70
2022/08/06 11:42:45;;;;;;;;;;;18.80;99.90;;;18.45;100.00;96362.25;10521122;28;1977;-71
2022/08/06 11:47:53;;;;;;;;;;;18.90;99.90;;;18.48;100.00;96359.75;10519956;28;2161;-70
2022/08/06 11:53:00;;;;;;;;;;;19.00;99.90;;;18.92;100.00;96362.78;10506463;28;1813;-71
2022/08/06 11:58:03;;;;;;;;;;;19.30;99.90;;;18.36;100.00;96363.00;10520856;28;1780;-70
2022/08/06 12:03:09;;;;;;;;;;;19.30;99.90;;;17.66;100.00;96357.25;10519215;28;2378;-72
2022/08/06 12:08:19;;;;;;;;;;;18.80;99.90;;;17.97;100.00;96360.94;10520792;28;1767;-69
2022/08/06 12:13:42;;;;;;;;;;;18.60;99.90;;;17.77;100.00;96367.63;10522824;28;1876;-71
2022/08/06 12:19:05;;;;;;;;;;;18.70;99.90;;;17.81;100.00;96368.66;10524093;28;1791;-70
2022/08/06 12:24:09;;;;;;;;;;;18.50;99.90;;;18.48;100.00;96357.03;10525427;28;1914;-70
2022/08/06 12:29:13;;;;;;;;;;;18.80;99.90;;;18.74;100.00;96353.69;10527706;28;1809;-70
2022/08/06 12:34:18;;;;;;;;;;;19.40;99.90;;;19.48;97.84;96347.63;10528328;28;1905;-72
2022/08/06 12:44:47;;;;;;;;;;;19.90;99.90;;;18.73;100.00;96344.72;10563768;27;2638;-70
2022/08/06 12:50:00;;;;;;;;;;;19.80;99.90;;;19.27;97.42;96345.44;10527987;28;1815;-71
2022/08/06 12:55:03;;;;;;;;;;;19.90;99.90;;;19.40;94.20;96336.38;10527248;28;1824;-70
2022/08/06 13:00:08;;;;;;;;;;;20.00;99.90;;;19.30;95.28;96342.09;10529824;28;1899;-72
2022/08/06 13:05:16;;;;;;;;;;;20.00;99.90;;;19.33;93.94;96335.19;10527341;28;1989;-69
2022/08/06 13:10:26;;;;;;;;;;;20.10;99.90;;;19.23;95.33;96335.50;10525100;28;1833;-69
2022/08/06 13:15:37;;;;;;;;;;;20.20;99.90;;;19.75;91.85;96336.47;10527936;28;1847;-71
2022/08/06 13:20:50;;;;;;;;;;;20.20;99.90;;;19.53;92.57;96336.53;10557172;27;1977;-69
2022/08/06 13:25:56;;;;;;;;;;;20.30;99.90;;;19.50;92.49;96340.72;10559719;27;1870;-70
2022/08/06 13:31:12;;;;;;;;;;;20.30;99.90;;;19.65;92.42;96334.03;10525188;28;1751;-70
2022/08/06 13:36:17;;;;;;;;;;;20.30;99.90;;;19.75;93.05;96335.66;10525505;28;1847;-73
2022/08/06 13:41:28;;;;;;;;;;;20.30;99.90;;;19.37;94.66;96331.53;10526715;28;1926;-69
2022/08/06 13:46:31;;;;;;;;;;;20.10;99.90;;;19.68;92.85;96338.88;10526659;28;1792;-70
2022/08/06 13:51:34;;;;;;;;;;;20.20;99.90;;;20.14;89.41;96342.94;10523477;28;1871;-70
2022/08/06 13:56:38;;;;;;;;;;;20.40;99.90;;;20.41;86.52;96345.31;10527910;28;1692;-71
2022/08/06 14:01:42;;;;;;;;;;;20.80;99.90;;;20.50;85.06;96345.34;10524145;28;1918;-71
2022/08/06 14:06:47;;;;;;;;;;;20.90;99.90;;;20.14;84.74;96343.72;10521689;28;1876;-71
2022/08/06 14:11:53;;;;;;;;;;;21.00;99.90;;;20.80;82.60;96335.31;10523964;28;2171;-69
2022/08/06 14:16:59;;;;;;;;;;;21.10;99.90;;;20.88;79.16;96344.66;10525803;28;1831;-71
2022/08/06 14:22:04;;;;;;;;;;;21.20;99.90;;;20.71;80.33;96342.75;10526621;28;1906;-71
2022/08/06 14:27:08;;;;;;;;;;;21.40;99.90;;;20.63;81.53;96340.84;10522028;28;1824;-70
2022/08/06 14:32:17;;;;;;;;;;;21.30;99.90;;;21.15;77.30;96340.69;10507977;28;1857;-70
2022/08/06 14:37:28;;;;;;;;;;;21.70;99.90;;;21.66;74.49;96327.94;10524261;28;1859;-71
2022/08/06 14:48:06;;;;;;;;;;;22.50;99.90;;;21.37;74.37;96324.03;10540843;28;2001;-73
2022/08/06 14:53:11;;;;;;;;;;;22.50;99.90;;;21.60;72.59;96316.38;10522510;28;1865;-72
2022/08/06 14:58:18;;;;;;;;;;;22.10;99.90;;;21.30;73.23;96323.75;10520026;28;1920;-71
2022/08/06 15:03:23;;;;;;;;;;;21.90;99.90;;;21.62;72.45;96318.75;10556273;27;1918;-71
2022/08/06 15:08:29;;;;;;;;;;;22.10;99.90;;;21.36;70.63;96311.50;10518416;28;1856;-71
2022/08/06 15:13:33;;;;;;;;;;;22.20;99.90;;;20.98;72.33;96309.53;10521797;28;1905;-70
2022/08/06 15:18:42;;;;;;;;;;;22.10;99.90;;;20.48;75.68;96310.16;10522335;28;1839;-71
2022/08/06 15:24:06;;;;;;;;;;;21.60;99.90;;;20.67;78.17;96307.06;10519774;28;1976;-71
2022/08/06 15:29:12;;;;;;;;;;;21.30;99.90;;;20.86;76.73;96300.44;10525308;28;1835;-70
2022/08/06 15:34:17;;;;;;;;;;;21.40;99.90;;;21.05;75.78;96300.84;10522293;28;1769;-72
2022/08/06 15:39:29;;;;;;;;;;;21.80;99.90;;;21.02;74.29;96293.31;10519399;28;1921;-74
2022/08/06 15:44:52;;;;;;;;;;;21.70;99.90;;;21.24;74.13;96297.69;10524538;28;1913;-71
2022/08/06 15:49:56;;;;;;;;;;;21.70;99.90;;;20.74;75.08;96301.09;10521197;28;1847;-71
2022/08/06 15:55:07;;;;;;;;;;;21.80;99.90;;;21.30;75.12;96286.28;10529981;28;1897;-71
2022/08/06 16:00:18;;;;;;;;;;;21.80;99.90;;;21.29;73.35;96279.22;10528429;28;1973;-72
2022/08/06 16:05:24;;;;;;;;;;;22.00;99.90;;;21.40;73.21;96284.31;10530762;28;1989;-71
2022/08/06 16:10:48;;;;;;;;;;;22.10;99.90;;;21.49;72.39;96285.06;10530898;28;1827;-71
2022/08/06 16:15:50;;;;;;;;;;;22.10;99.90;;;21.36;75.06;96277.91;10544453;28;1792;-71
2022/08/06 16:20:54;;;;;;;;;;;22.10;99.90;;;21.09;75.76;96268.19;10529182;28;1839;-70
2022/08/06 16:26:06;;;;;;;;;;;21.90;99.90;;;21.29;75.88;96267.47;10544464;28;1906;-71
2022/08/06 16:31:27;;;;;;;;;;;22.00;99.90;;;21.02;75.16;96269.50;10528056;28;1999;-70
2022/08/06 16:36:49;;;;;;;;;;;22.00;99.90;;;20.72;74.92;96270.59;10529991;28;1850;-71
2022/08/06 16:41:54;;;;;;;;;;;21.60;99.90;;;20.80;75.21;96267.00;10527558;28;1907;-72
2022/08/06 16:47:03;;;;;;;;;;;21.70;99.90;;;20.70;76.07;96264.66;10529404;28;1868;-72
2022/08/06 16:52:08;;;;;;;;;;;21.60;99.90;;;20.55;76.55;96259.69;10527731;28;1801;-73
2022/08/06 16:57:31;;;;;;;;;;;21.40;99.90;;;20.47;77.85;96259.41;10528982;28;1862;-74
2022/08/06 17:02:40;;;;;;;;;;;21.30;99.90;;;20.60;77.71;96254.06;10544531;28;1977;-71
2022/08/06 17:07:44;;;;;;;;;;;21.30;99.90;;;20.67;77.54;96240.72;10526962;28;1850;-72
2022/08/06 17:12:56;;;;;;;;;;;21.30;99.90;;;20.64;77.51;96236.72;10530254;28;1853;-71
2022/08/06 17:18:08;;;;;;;;;;;21.50;99.90;;;20.93;79.35;96241.44;10526175;28;1851;-72
2022/08/06 17:23:13;;;;;;;;;;;21.50;99.90;;;20.96;75.61;96243.50;10528719;28;1975;-70
2022/08/06 17:28:16;;;;;;;;;;;21.80;99.90;;;21.08;77.19;96242.78;10529342;28;1936;-72
2022/08/06 17:33:19;;;;;;;;;;;21.80;99.90;;;20.95;76.56;96239.16;10527141;28;1848;-70
2022/08/06 17:38:24;;;;;;;;;;;21.80;99.90;;;20.75;79.09;96245.38;10527086;28;1843;-71
2022/08/06 17:43:29;;;;;;;;;;;21.60;99.90;;;20.70;78.67;96240.06;10528921;28;1910;-71
2022/08/06 17:48:51;;;;;;;;;;;21.60;99.90;;;20.69;80.37;96233.00;10525102;28;2023;-71
2022/08/06 17:53:57;;;;;;;;;;;21.40;99.90;;;20.46;81.03;96233.22;10524289;28;3353;-70
2022/08/06 17:59:19;;;;;;;;;;;21.40;99.90;;;20.34;80.72;96244.00;10524506;28;1780;-71
2022/08/06 18:04:31;;;;;;;;;;;21.30;99.90;;;20.28;83.01;96245.28;10540274;28;1915;-70
2022/08/06 18:10:21;;;;;;;;;;;21.20;99.90;;;20.25;82.32;96252.19;10552703;27;1926;-71
2022/08/06 18:15:16;;;;;;;;;;;21.10;99.90;;;20.10;83.60;96262.81;10523035;28;1851;-71
2022/08/06 18:20:21;;;;;;;;;;;21.00;99.90;;;19.91;84.42;96258.50;10520120;28;1824;-72
2022/08/06 18:25:35;;;;;;;;;;;20.90;99.90;;;19.65;84.66;96272.09;10523938;28;1910;-73
2022/08/06 18:30:58;;;;;;;;;;;20.70;99.90;;;19.54;87.26;96270.00;10524912;28;1890;-70
2022/08/06 18:36:02;;;;;;;;;;;20.60;99.90;;;19.38;88.62;96265.00;10524052;28;1827;-73
2022/08/06 18:41:09;;;;;;;;;;;20.40;99.90;;;19.37;90.90;96265.31;10521721;28;1860;-72
2022/08/06 18:46:19;;;;;;;;;;;20.30;99.90;;;19.38;89.89;96272.38;10522220;28;1918;-74
2022/08/06 18:51:42;;;;;;;;;;;20.20;99.90;;;19.36;90.95;96269.97;10524088;28;1823;-73
2022/08/06 18:56:48;;;;;;;;;;;20.20;99.90;;;19.30;92.09;96271.22;10522335;28;1780;-70
2022/08/06 19:01:54;;;;;;;;;;;20.20;99.90;;;19.23;92.01;96276.34;10524766;28;1976;-70
2022/08/06 19:06:59;;;;;;;;;;;20.10;99.90;;;19.16;93.80;96271.34;10520855;28;1869;-72
2022/08/06 19:12:05;;;;;;;;;;;20.10;99.90;;;19.14;93.27;96280.94;10524099;28;1870;-70
2022/08/06 19:17:16;;;;;;;;;;;20.00;99.90;;;19.10;94.72;96280.78;10522116;28;1839;-70
2022/08/06 19:22:40;;;;;;;;;;;20.00;99.90;;;19.07;95.10;96284.13;10522239;28;1919;-72
2022/08/06 19:27:47;;;;;;;;;;;20.00;99.90;;;19.10;93.99;96282.72;10522768;28;1863;-73
2022/08/06 19:33:10;;;;;;;;;;;20.00;99.90;;;19.09;94.25;96278.41;10520793;28;1847;-71
2022/08/06 19:38:18;;;;;;;;;;;19.90;99.90;;;19.00;95.49;96277.53;10518701;28;1893;-72
2022/08/06 19:43:21;;;;;;;;;;;19.90;99.90;;;18.92;98.29;96281.84;10522004;28;1969;-73
2022/08/06 19:48:44;;;;;;;;;;;19.80;99.90;;;18.89;98.63;96277.84;10517677;28;1866;-71
2022/08/06 19:53:47;;;;;;;;;;;19.80;99.90;;;18.77;100.00;96282.28;10533247;28;1922;-72
2022/08/06 19:58:57;;;;;;;;;;;19.70;99.90;;;18.75;100.00;96282.56;10522653;28;1940;-71
2022/08/06 20:04:20;;;;;;;;;;;19.70;99.90;;;18.72;100.00;96279.69;10518249;28;1981;-72
2022/08/06 20:09:28;;;;;;;;;;;19.60;99.90;;;18.59;100.00;96273.19;10516856;28;1854;-73
2022/08/06 20:14:51;;;;;;;;;;;19.60;99.90;;;18.54;100.00;96281.47;10522224;28;1985;-73
2022/08/06 20:19:55;;;;;;;;;;;19.50;99.90;;;18.54;100.00;96276.03;10521554;28;1803;-72
2022/08/06 20:25:09;;;;;;;;;;;19.50;99.90;;;18.52;100.00;96287.25;10521084;28;1918;-72
2022/08/06 20:30:21;;;;;;;;;;;19.50;99.90;;;18.45;100.00;96283.31;10521573;28;1799;-71
2022/08/06 20:35:27;;;;;;;;;;;19.40;99.90;;;18.55;100.00;96285.81;10519668;28;1895;-71
2022/08/06 20:40:34;;;;;;;;;;;19.40;99.90;;;18.55;100.00;96274.91;10525680;28;1870;-71
2022/08/06 20:45:57;;;;;;;;;;;19.40;99.90;;;18.43;100.00;96285.56;10527526;28;1993;-72
2022/08/06 20:51:00;;;;;;;;;;;19.40;99.90;;;18.25;100.00;96288.16;10526971;28;1767;-71
2022/08/06 20:56:06;;;;;;;;;;;19.30;99.90;;;18.13;100.00;96284.41;10529063;28;1826;-72
2022/08/06 21:01:10;;;;;;;;;;;19.10;99.90;;;18.04;100.00;96279.69;10526093;28;1824;-70
2022/08/06 21:06:14;;;;;;;;;;;19.10;99.90;;;18.06;100.00;96282.09;10527369;28;1989;-73
2022/08/06 21:11:28;;;;;;;;;;;19.00;99.90;;;17.98;100.00;96286.38;10523276;28;1895;-71
2022/08/06 21:16:33;;;;;;;;;;;18.90;99.90;;;17.97;100.00;96283.97;10523587;28;1870;-73
2022/08/06 21:21:39;;;;;;;;;;;18.90;99.90;;;17.83;100.00;96273.94;10521014;28;1908;-71
2022/08/06 21:26:42;;;;;;;;;;;18.80;99.90;;;17.69;100.00;96278.59;10524273;28;2022;-71
2022/08/06 21:31:53;;;;;;;;;;;18.70;99.90;;;17.66;100.00;96279.19;10538641;28;1916;-70
2022/08/06 21:37:02;;;;;;;;;;;18.70;99.90;;;17.67;100.00;96280.00;10523617;28;2140;-69
2022/08/06 21:42:23;;;;;;;;;;;18.60;99.90;;;17.80;100.00;96280.00;10521588;28;1947;-71
2022/08/06 21:47:26;;;;;;;;;;;18.70;99.90;;;17.73;100.00;96278.81;10521689;28;2002;-73
2022/08/06 21:52:48;;;;;;;;;;;18.70;99.90;;;17.67;100.00;96296.31;10522475;28;2189;-70
2022/08/06 21:57:52;;;;;;;;;;;18.50;99.90;;;17.67;100.00;96291.69;10524966;28;1906;-72
2022/08/06 22:03:04;;;;;;;;;;;18.50;99.90;;;17.77;100.00;96280.63;10523298;28;2013;-72
2022/08/06 22:08:16;;;;;;;;;;;;;;;19.65;100.00;96282.22;10521916;28;1874;-72
2022/08/06 22:13:20;;;;;;;;;;;;;;;18.99;100.00;96281.41;10514954;28;1910;-72
2022/08/06 22:18:26;;;;;;;;;;;;;;;18.11;100.00;96290.16;10516640;28;1847;-74
2022/08/06 22:23:32;;;;;;;;;;;;;;;17.61;100.00;96290.19;10521993;28;2240;-70
2022/08/06 22:28:35;;;;;;;;;;;;;;;17.34;100.00;96293.75;10519295;28;1882;-69
2022/08/06 22:33:44;;;;;;;;;;;;;;;17.53;100.00;96283.56;10520234;28;1808;-68
2022/08/06 22:39:03;;;;;;;;;;;;;;;17.55;100.00;96285.97;10520878;28;1946;-70
2022/08/06 22:44:07;;;;;;;;;;;;;;;17.24;100.00;96277.66;10558016;27;1913;-69
2022/08/06 22:49:16;;;;;;;;;;;;;;;17.29;100.00;96270.22;10524078;28;1847;-70
2022/08/06 22:54:21;;;;;;;;;;;;;;;17.12;100.00;96261.91;10526125;28;1823;-70
2022/08/06 22:59:44;;;;;;;;;;;;;;;17.11;100.00;96265.69;10521318;28;1846;-69
2022/08/06 23:05:07;;;;;;;;;;;;;;;17.54;100.00;96268.06;10519246;28;2052;-70
2022/08/06 23:10:16;;;;;;;;;;;;;;;17.30;100.00;96271.00;10518526;28;1822;-69
2022/08/06 23:15:23;;;;;;;;;;;;;;;17.67;100.00;96253.63;10521103;28;1886;-68
2022/08/06 23:20:41;;;;;;;;;;;;;;;17.20;100.00;96250.31;10519362;28;1865;-68
2022/08/06 23:25:46;;;;;;;;;;;;;;;17.22;100.00;96245.38;10519778;28;1984;-69
2022/08/06 23:31:04;;;;;;;;;;;;;;;17.19;100.00;96243.28;10518660;28;1877;-69
2022/08/06 23:36:10;;;;;;;;;;;;;;;17.06;100.00;96243.28;10520447;28;1938;-70
2022/08/06 23:41:18;;;;;;;;;;;;;;;16.98;100.00;96242.88;10520110;28;1878;-69
2022/08/06 23:46:26;;;;;;;;;;;;;;;17.29;100.00;96243.03;10523366;28;1890;-69
2022/08/06 23:51:30;;;;;;;;;;;;;;;17.13;100.00;96239.06;10551454;28;1758;-69
2022/08/06 23:56:54;;;;;;;;;;;;;;;17.01;100.00;96241.47;10518132;28;1820;-68
